METAR Data
IDs: Format: Raw Decoded Include TAF

Data at: 0246 UTC 25 Jan 2020

METAR for:KCCY (Charles City/NE Iowa, IA, US)
Text:KCCY 250235Z AUTO 34011KT 7SM OVC007 M01/M01 A2992 RMK AO2
Temperature: -1.0°C ( 30°F)
Dewpoint: -1.0°C ( 30°F) [RH = 100%]
Pressure (altimeter):29.92 inches Hg (1013.3 mb)
Winds:from the NNW (340 degrees) at 13 MPH (11 knots; 5.7 m/s)
Visibility: 7 sm ( 11 km)
Ceiling:700 feet AGL
Clouds: overcast cloud deck at 700 feet AGL
QC Flag:automated observation with no human augmentation